17 sierpnia 2022

Czas Kod Pogoda Temp. Widoczność Sufit Wiatr METAR/SPECI
5:00 am
V
50 °F 20 mi - 200° 200° 3 kt METAR CYEG 171100Z 20003KT 180V250 20SM SKC 10/09 A3018 RMK SLP224
4:00 am
V
50 °F 20 mi - 240° 240° 4 kt METAR CYEG 171000Z 24004KT 20SM SKC 10/10 A3017 RMK SLP220
3:00 am
V
54 °F 20 mi - 240° 240° 2 kt METAR CYEG 170900Z 24002KT 20SM SKC 12/12 A3015 RMK SLP214 DENSITY ALT 2400FT
2:00 am
V
54 °F 20 mi - 240° 240° 5 kt METAR CYEG 170800Z 24005KT 20SM FEW130 FEW240 12/12 A3014 RMK AC1CI1 AC TR CI TR SLP209 DENSITY ALT 2400FT
1:00 am
V
54 °F 20 mi - 260° 260° 4 kt METAR CYEG 170700Z 26004KT 20SM FEW130 FEW240 12/12 A3013 RMK AC1CI1 AC TR SLP208 DENSITY ALT 2400FT
12:00 am
V
57 °F 20 mi - 270° 270° 5 kt METAR CYEG 170600Z 27005KT 20SM FEW240 14/12 A3012 RMK CI1 SLP199 DENSITY ALT 2600FT

16 sierpnia 2022

Czas Kod Pogoda Temp. Widoczność Sufit Wiatr METAR/SPECI
11:00 pm
V
55 °F 20 mi - 260° 260° 2 kt METAR CYEG 170500Z 26002KT 20SM FEW120 13/13 A3011 RMK AC1 SLP198 DENSITY ALT 2600FT
10:00 pm
V
61 °F 20 mi - 300° 300° 3 kt METAR CYEG 170400Z 30003KT 220V330 20SM FEW080 SCT120 16/15 A3010 RMK CU1AC3 CB SE MOV E SLP195 DENSITY ALT 2900FT
9:00 pm
V
64 °F 20 mi 11.000 ft 180° 180° 5 kt METAR CYEG 170300Z 18005KT 20SM FEW080CB BKN110 BKN160 18/16 A3008 RMK CB2ACC4AC1 CB S MOV E SLP190 DENSITY ALT 3100FT
8:24 pm
V
66 °F 20 mi 11.000 ft 210° 210° 8 kt METAR CYEG 170224Z 21008KT 20SM FEW080CB BKN110 BKN160 19/16 A3009 RMK CB2ACC5AC1 AC TR CB SW-W MOV E SLP191 DENSITY ALT 3200FT
8:00 pm
V
66 °F 15 mi 11.000 ft 240° 240° 9 kt METAR CYEG 170200Z 24009KT 15SM -SHRA FEW080CB BKN110 BKN160 19/16 A3009 RMK CB2ACC5AC1 AC TR CB SW-W MOV E SLP194 DENSITY ALT 3300FT
7:42 pm
V
68 °F 15 mi 11.000 ft 250° 250° 10 kt METAR CYEG 170142Z 25010KT 15SM -SHRA FEW080CB BKN110 BKN160 BKN250 20/15 A3008 RMK CB1ACC5AC1CI1 CI TR CB DIST SW-W MOV E PRESRR SLP193 DENSITY ALT 3400FT
7:33 pm
V
70 °F 20 mi 11.000 ft 290° 290° 5 kt METAR CYEG 170133Z 29005KT 20SM FEW080CB BKN110 BKN160 BKN250 21/14 A3007 RMK CB1ACC5AC1CI1 CI TR CB SH DIST SW-W MOV E PRESRR SLP187 DENSITY ALT 3500FT
7:07 pm
V
72 °F 20 mi 11.000 ft 320° 320° 7 kt METAR CYEG 170107Z CCA 32007KT 20SM -SHRA FEW080CB BKN110 BKN160 BKN250 22/14 A3004 RMK CB1ACC4AC1CI1 AC TR CI TR CB SH DIST SW-W MOV E OCNL LTGIC SLP179 DENSITY ALT 3600FT
6:00 pm
V
77 °F 20 mi - 340° 340° 9 kt METAR CYEG 170000Z 34009KT 20SM FEW120 FEW180 FEW250 25/13 A3002 RMK AC1AC1CI1 CI TR ACC ASOCTD LWR LYR SLP168 DENSITY ALT 4000FT
5:00 pm
V
79 °F 20 mi - 340° 340° 9 kt METAR CYEG 162300Z 34009KT 20SM SCT120 SCT220 26/14 A3001 RMK AC3CI1 ACC ASOCTD SLP166 DENSITY ALT 4100FT
4:00 pm
V
77 °F 20 mi 18.000 ft 030° 030° 11 kt METAR CYEG 162200Z 03011KT 20SM SCT100 BKN180 BKN250 25/14 A3000 RMK AC4AC1CI1 CI TR PCPN DIST NE ACC ASOCTD LWR LYR SLP161 DENSITY ALT 4100FT
3:00 pm
V
75 °F 20 mi 13.000 ft 340° 340° 9 - 15 kt METAR CYEG 162100Z 34009G15KT 20SM FEW100 BKN130 BKN250 24/14 A3002 RMK ACC1AC4CI2 VIRGA S-SW SLP170 DENSITY ALT 3900FT
2:00 pm
V
77 °F 20 mi 25.000 ft 340° 340° 9 - 16 kt METAR CYEG 162000Z 34009G16KT 290V350 20SM FEW100 FEW160 BKN250 25/16 A3002 RMK AC1AC2CI3 AC TR ACC ASOCTD LWR LYR SLP168 DENSITY ALT 4000FT
1:06 pm
V
75 °F 20 mi 25.000 ft 300° 300° 15 - 22 kt METAR CYEG 161906Z 30015G22KT 20SM FEW110 SCT180 BKN250 24/16 A3001 RMK AC2AC1CI3 ACC ASOCTD LWR LYR WSHFT 1855 SLP166 DENSITY ALT 3900FT
12:00 pm
V
79 °F 20 mi 25.000 ft 200° 200° 6 kt METAR CYEG 161800Z CCA 20006KT 20SM FEW100 FEW170 BKN250 26/14 A2999 RMK ACC1AC2CI4 ACC TR CONTRAILS CC ASOCTD SLP156 DENSITY ALT 4200FT
11:00 am
V
75 °F 20 mi 25.000 ft 160° 160° 8 kt METAR CYEG 161700Z 16008KT 20SM FEW180 BKN250 24/14 A2999 RMK AC1CI4 CONTRAILS SLP157 DENSITY ALT 4000FT
10:00 am
V
72 °F 20 mi - 190° 190° 5 kt METAR CYEG 161600Z 19005KT 160V220 20SM FEW100 FEW160 FEW250 22/15 A3000 RMK AC1AC1CI2 AC TR AC TR CONTRAILS SLP161 DENSITY ALT 3700FT
9:00 am
V
64 °F 20 mi - 240° 240° 5 kt METAR CYEG 161500Z 24005KT 20SM FEW100 SCT250 18/15 A3001 RMK AC1CI3 AC TR CONTRAILS SLP165 DENSITY ALT 3200FT
8:00 am
V
59 °F 20 mi - Var 000° 0 kt METAR CYEG 161400Z 00000KT 20SM FEW100 SCT250 15/14 A3000 RMK AC1CI4 AC TR CONTRAILS SLP161 DENSITY ALT 2800FT
7:00 am
V
54 °F 20 mi 25.000 ft 150° 150° 5 kt METAR CYEG 161300Z 15005KT 20SM BKN250 12/11 A3000 RMK CI7 SLP161 DENSITY ALT 2500FT
6:00 am
V
52 °F 20 mi 25.000 ft 130° 130° 6 kt METAR CYEG 161200Z 13006KT 20SM BKN250 11/10 A2999 RMK CI6 SLP158 DENSITY ALT 2500FT
5:00 am
V
50 °F 20 mi 25.000 ft 160° 160° 3 kt METAR CYEG 161100Z 16003KT 20SM BKN250 10/10 A3000 RMK CI5 SLP160
4:00 am
V
52 °F 20 mi - 160° 160° 2 kt METAR CYEG 161000Z 16002KT 20SM FEW250 11/10 A3000 RMK CI1 SLP161 DENSITY ALT 2400FT
3:00 am
V
54 °F 20 mi - 190° 190° 2 kt METAR CYEG 160900Z 19002KT 20SM SKC 12/11 A3000 RMK SLP161 DENSITY ALT 2500FT
2:00 am
V
52 °F 20 mi - 220° 220° 7 kt METAR CYEG 160800Z 22007KT 20SM FEW100 11/11 A3001 RMK AC1 AC TR SLP164 DENSITY ALT 2400FT
1:00 am
V
54 °F 20 mi - Var 000° 0 kt METAR CYEG 160700Z 00000KT 20SM FEW100 12/11 A3000 RMK AC1 SLP161 DENSITY ALT 2600FT
12:00 am
V
57 °F 20 mi - 140° 140° 4 kt METAR CYEG 160600Z 14004KT 130V250 20SM FEW100 FEW250 14/13 A3000 RMK AC1CI1 CI TR SLP161 DENSITY ALT 2800FT

15 sierpnia 2022

Czas Kod Pogoda Temp. Widoczność Sufit Wiatr METAR/SPECI
11:00 pm
V
57 °F 20 mi - 190° 190° 5 kt METAR CYEG 160500Z 19005KT 20SM FEW100 FEW250 14/12 A3000 RMK AC1CI1 CI TR SLP164 DENSITY ALT 2700FT
10:00 pm
V
59 °F 20 mi - 180° 180° 5 kt METAR CYEG 160400Z 18005KT 20SM FEW060CB FEW100 FEW250 15/13 A3001 RMK CB1AC1CI1 CB TR CI TR CB SH DIST SW MOV SE SLP167 DENSITY ALT 2900FT
9:00 pm
V
68 °F 20 mi - 180° 180° 5 kt METAR CYEG 160300Z 18005KT 20SM FEW060CB FEW100 FEW250 20/14 A3000 RMK CB1AC1CI1 CB TR CI TR CB SH DIST W MOV E OCNL LTNG SLP162 DENSITY ALT 3400FT
8:00 pm
V
73 °F 20 mi - 200° 200° 4 kt METAR CYEG 160200Z 20004KT 20SM FEW060 FEW100 FEW250 23/16 A3000 RMK CU1AC1CI1 CU TR CI TR SLP161 DENSITY ALT 3800FT
7:00 pm
V
73 °F 20 mi - 220° 220° 5 kt METAR CYEG 160100Z 22005KT 20SM FEW060 FEW100 FEW180 SCT230 23/15 A3000 RMK CU1AC1AC1CI2 CU TR UPR AC TR SLP163 DENSITY ALT 3800FT
6:00 pm
V
81 °F 20 mi 23.000 ft 260° 260° 3 kt METAR CYEG 160000Z 26003KT 190V360 20SM FEW060 SCT180 BKN230 27/12 A2999 RMK CU2AC1CI3 TCU ASOCTD SLP158 DENSITY ALT 4200FT
5:00 pm
V
81 °F 20 mi 25.000 ft Var Var 2 kt METAR CYEG 152300Z VRB02KT 20SM FEW064 FEW100 FEW160 BKN250 27/12 A3000 RMK CU2AC1AC1CI4 AC TR AC TR TCU ASOCTD SLP162 DENSITY ALT 4300FT
4:00 pm
V
77 °F 20 mi 25.000 ft 230° 230° 3 kt METAR CYEG 152200Z 23003KT 20SM SCT048 SCT100 BKN250 25/13 A3001 RMK CU3AC1CI3 AC TR CONTRAILS TCU ASOCTD SLP168 DENSITY ALT 4000FT
3:00 pm
V
77 °F 20 mi 25.000 ft 340° 340° 3 kt METAR CYEG 152100Z 34003KT 230V020 20SM FEW048 FEW100 FEW160 BKN250 25/13 A3002 RMK CU2AC1AC1CI4 AC TR AC TR CONTRAILS CC ASOCTD SLP170 DENSITY ALT 4000FT
2:00 pm
V
77 °F 20 mi 25.000 ft Var Var 2 kt METAR CYEG 152000Z CCA VRB02KT 20SM FEW048 FEW100 FEW160 BKN250 25/13 A3003 RMK CU1AC1AC1CI6 CU TR AC TR AC TR ACC ASOCTD LWR AC LYR SLP171 DENSITY ALT 4000FT
1:00 pm
V
75 °F 20 mi 25.000 ft 170° 170° 3 kt METAR CYEG 151900Z 17003KT 120V220 20SM FEW040 FEW100 BKN250 24/15 A3004 RMK CU1AC2CI5 CU TR ACC ASOCTD SLP176 DENSITY ALT 3900FT
12:00 pm
V
73 °F 20 mi 25.000 ft Var Var 2 kt METAR CYEG 151800Z VRB02KT 20SM FEW036 SCT100 BKN250 23/13 A3005 RMK CU1AC4CI2 CU TR ACC ASOCTD E SLP180 DENSITY ALT 3700FT
11:00 am
V
70 °F 20 mi - Var Var 2 kt METAR CYEG 151700Z VRB02KT 20SM FEW090 FEW160 FEW250 21/13 A3005 RMK AC1AC1CI2 AC TR AC TR ACC ASOCTD LWR LYR SLP181 DENSITY ALT 3500FT
10:00 am
V
66 °F 20 mi - 260° 260° 5 kt METAR CYEG 151600Z 26005KT 240V340 20SM FEW090 FEW120 FEW250 19/14 A3005 RMK AC1AC1CI1 AC TR AC TR ACC ASOCTD LWR LYR SLP182 DENSITY ALT 3300FT
9:00 am
V
61 °F 20 mi - 260° 260° 4 kt METAR CYEG 151500Z 26004KT 190V270 20SM SCT088 SCT110 SCT250 16/13 A3005 RMK AC3AC1CI1 AC TR CI TR ACC ASOCTD E SLP183 DENSITY ALT 2900FT
8:00 am
V
55 °F 20 mi 11.000 ft 210° 210° 3 kt METAR CYEG 151400Z 21003KT 20SM SCT086 BKN110 BKN250 13/13 A3005 RMK AC4AC1CI1 CI TR ACC ASOCTD SH DIST E SLP182 DENSITY ALT 2600FT
7:00 am
V
52 °F 20 mi 9.000 ft 220° 220° 3 kt METAR CYEG 151300Z 22003KT 20SM VCSH BKN090 BKN110 BKN250 11/11 A3005 RMK ACC7AC1CI1 AC TR CI TR CONTRAILS SH S SLP183 DENSITY ALT 2400FT
Starsze dane

My i osoby trzecie śledzimy twoje zachowanie w internecie na naszej stronie za pomocą plików cookie. Jeśli kontynuujesz, zakładamy, że zgadzasz się z naszą polityką plików cookie. Dowiedz się więcej